Time;durP1;ratioP1;P1;durP2;ratioP2;P2;SDS_P1;SDS_P2;PMS_P1;PMS_P2;Temp;Humidity;BMP_temperature;BMP_pressure;BME280_temperature;BME280_humidity;BME280_pressure;Samples;Min_cycle;Max_cycle;Signal;HPM_P1;HPM_P2
2023/04/30 00:01:37;;;;;;;23.10;13.00;;;;;;;11.04;79.46;94533.81;5012555;28;20200;-74
2023/04/30 00:04:02;;;;;;;24.27;13.70;;;;;;;11.05;79.50;94540.69;5012571;28;20319;-75
2023/04/30 00:06:28;;;;;;;26.63;14.57;;;;;;;10.92;79.75;94526.66;5002516;28;20184;-74
2023/04/30 00:08:53;;;;;;;31.07;14.23;;;;;;;10.98;79.64;94527.59;4992907;28;20232;-74
2023/04/30 00:11:20;;;;;;;25.03;13.93;;;;;;;10.93;79.50;94537.97;4992682;28;20197;-75
2023/04/30 00:13:45;;;;;;;25.53;14.13;;;;;;;10.89;79.92;94535.00;4996292;28;20183;-75
2023/04/30 00:16:11;;;;;;;25.37;13.10;;;;;;;10.58;80.32;94491.19;5012598;28;20268;-74
2023/04/30 00:18:37;;;;;;;25.40;13.17;;;;;;;10.74;80.52;94526.66;5012609;28;20177;-75
2023/04/30 00:21:03;;;;;;;22.90;13.60;;;;;;;10.79;80.46;94532.06;5007689;28;20260;-75
2023/04/30 00:23:28;;;;;;;21.37;13.23;;;;;;;10.78;80.40;94537.56;4992901;28;20191;-75
2023/04/30 00:25:53;;;;;;;25.17;14.57;;;;;;;10.76;80.38;94532.50;5004280;28;20184;-75
2023/04/30 00:28:19;;;;;;;22.20;13.90;;;;;;;10.69;80.46;94534.41;5012284;28;20308;-75
2023/04/30 00:30:44;;;;;;;28.97;14.43;;;;;;;10.66;80.51;94532.22;5012283;28;20300;-75
2023/04/30 00:33:10;;;;;;;24.80;12.87;;;;;;;10.62;80.72;94527.63;5012298;28;20263;-75
2023/04/30 00:35:35;;;;;;;21.20;12.57;;;;;;;10.53;80.58;94535.78;5004890;28;20173;-75
2023/04/30 00:38:01;;;;;;;20.27;11.10;;;;;;;10.28;80.82;94510.56;5003307;28;20188;-75
2023/04/30 00:40:26;;;;;;;17.80;10.67;;;;;;;10.42;81.02;94539.13;5003655;28;20646;-75
2023/04/30 00:42:54;;;;;;;17.63;9.60;;;;;;;10.38;81.42;94535.31;5011990;28;20215;-75
2023/04/30 00:45:21;;;;;;;18.47;10.13;;;;;;;10.35;81.16;94529.69;4999459;28;20184;-75
2023/04/30 00:47:47;;;;;;;15.77;9.93;;;;;;;10.31;81.01;94534.59;4992504;28;20208;-75
2023/04/30 00:50:14;;;;;;;14.70;8.90;;;;;;;10.21;81.40;94521.91;4992053;28;20216;-75
2023/04/30 00:52:41;;;;;;;20.75;8.77;;;;;;;10.06;81.88;94529.31;4990803;28;20428;-75
2023/04/30 00:55:08;;;;;;;14.30;8.45;;;;;;;10.01;82.50;94528.34;4991229;28;20507;-75
2023/04/30 00:57:35;;;;;;;13.27;8.13;;;;;;;10.04;81.90;94533.97;4991988;28;20184;-75
2023/04/30 01:00:00;;;;;;;16.40;8.87;;;;;;;10.09;81.80;94528.09;4992116;28;20188;-75
2023/04/30 01:02:26;;;;;;;17.90;8.00;;;;;;;10.09;81.44;94526.25;4998338;28;20193;-75
2023/04/30 01:04:52;;;;;;;13.43;8.03;;;;;;;9.98;81.88;94508.56;5005831;28;20218;-75
2023/04/30 01:07:17;;;;;;;13.07;7.17;;;;;;;10.04;81.88;94525.28;5011380;28;20177;-75
2023/04/30 01:09:43;;;;;;;16.20;7.20;;;;;;;10.04;81.41;94526.09;4978487;28;20181;-76
2023/04/30 01:12:25;;;;;;;13.50;6.33;;;;;;;10.00;81.64;94524.13;4991887;28;20181;-75
2023/04/30 01:15:15;;;;;;;16.30;7.63;;;;;;;10.02;81.80;94532.59;4992009;28;20177;-75
2023/04/30 01:18:20;;;;;;;12.10;6.70;;;;;;;9.94;81.75;94519.72;4995848;28;20176;-75
2023/04/30 01:20:53;;;;;;;13.23;7.30;;;;;;;9.89;81.50;94530.88;4984977;28;20228;-75
2023/04/30 01:23:47;;;;;;;12.83;6.90;;;;;;;9.84;82.01;94525.47;4991876;28;20181;-76
2023/04/30 01:26:14;;;;;;;12.50;7.03;;;;;;;9.84;81.80;94533.34;4992717;28;20185;-75
2023/04/30 01:28:45;;;;;;;13.97;7.07;;;;;;;9.83;81.96;94526.47;5011273;28;20639;-75
2023/04/30 01:31:13;;;;;;;13.77;7.10;;;;;;;9.78;82.32;94521.03;5011414;28;20679;-75
2023/04/30 01:33:38;;;;;;;14.00;7.70;;;;;;;9.78;81.93;94521.84;5011105;28;20180;-75
2023/04/30 01:36:13;;;;;;;15.47;7.73;;;;;;;9.77;82.54;94522.09;4987488;28;20181;-75
2023/04/30 01:39:23;;;;;;;14.43;8.43;;;;;;;9.76;82.24;94531.78;5011229;28;20190;-75
2023/04/30 01:42:01;;;;;;;13.30;7.40;;;;;;;9.77;81.94;94525.50;4965337;28;20208;-75
2023/04/30 01:44:57;;;;;;;18.27;8.80;;;;;;;9.70;82.56;94523.94;4991599;28;20188;-75
2023/04/30 01:47:43;;;;;;;19.00;8.07;;;;;;;9.71;82.81;94526.34;4990807;28;20191;-75
2023/04/30 01:50:25;;;;;;;18.13;8.10;;;;;;;9.70;82.63;94526.56;4992550;28;20208;-75
2023/04/30 01:52:53;;;;;;;16.47;7.63;;;;;;;9.70;82.72;94530.00;4987857;28;20189;-75
2023/04/30 01:55:33;;;;;;;13.90;8.33;;;;;;;9.73;82.92;94526.94;4974006;28;20570;-75
2023/04/30 01:58:01;;;;;;;15.13;7.47;;;;;;;9.73;82.52;94537.47;4996724;28;20312;-75
2023/04/30 02:00:29;;;;;;;15.47;8.43;;;;;;;9.76;83.12;94534.41;5010951;28;20187;-75
2023/04/30 02:02:55;;;;;;;14.00;8.17;;;;;;;9.79;83.16;94533.16;5011013;28;20662;-75
2023/04/30 02:05:20;;;;;;;14.00;8.53;;;;;;;9.82;83.10;94530.13;5010773;28;20187;-75
2023/04/30 02:07:48;;;;;;;18.23;8.65;;;;;;;9.81;83.23;94537.19;4993138;28;20434;-75
2023/04/30 02:10:17;;;;;;;13.33;7.17;;;;;;;9.71;83.64;94528.19;5012563;28;20669;-75
2023/04/30 02:12:43;;;;;;;12.70;7.30;;;;;;;9.76;84.01;94533.63;5015125;28;20247;-75
2023/04/30 02:15:09;;;;;;;14.23;8.33;;;;;;;9.81;83.51;94531.13;5014831;28;20184;-75
2023/04/30 02:17:35;;;;;;;15.40;7.37;;;;;;;9.86;83.17;94528.66;5013458;28;20624;-75
2023/04/30 02:20:00;;;;;;;10.40;7.07;;;;;;;9.88;82.85;94531.09;4995057;28;20188;-75
2023/04/30 02:22:26;;;;;;;14.23;7.90;;;;;;;9.70;82.51;94503.72;4995047;28;20188;-75
2023/04/30 02:24:56;;;;;;;16.40;7.53;;;;;;;9.87;82.85;94527.66;4995228;28;20191;-75
2023/04/30 02:27:23;;;;;;;12.90;7.90;;;;;;;9.74;82.74;94506.72;4995021;28;20177;-75
2023/04/30 02:29:49;;;;;;;13.37;7.93;;;;;;;9.87;82.86;94526.84;4994728;28;20221;-75
2023/04/30 02:32:14;;;;;;;13.60;8.20;;;;;;;9.73;83.51;94499.88;5007523;28;20242;-75
2023/04/30 02:34:40;;;;;;;17.37;8.40;;;;;;;9.72;83.44;94493.81;5014440;28;20231;-75
2023/04/30 02:37:06;;;;;;;15.37;7.23;;;;;;;9.94;83.47;94525.78;4997441;28;20185;-75
2023/04/30 02:39:32;;;;;;;11.43;6.70;;;;;;;9.96;83.16;94526.34;4994813;28;20289;-75
2023/04/30 02:41:57;;;;;;;13.43;8.17;;;;;;;9.86;83.33;94502.38;4994931;28;20267;-75
2023/04/30 02:44:23;;;;;;;17.13;8.60;;;;;;;10.01;83.46;94526.53;4994779;28;20180;-75
2023/04/30 02:46:48;;;;;;;17.00;8.73;;;;;;;10.04;83.68;94528.72;4994609;28;20189;-75
2023/04/30 02:49:13;;;;;;;19.30;9.00;;;;;;;10.06;83.56;94531.13;4994558;28;20197;-75
2023/04/30 02:51:39;;;;;;;17.90;9.30;;;;;;;10.10;83.39;94534.97;4994497;28;20932;-75
2023/04/30 02:54:05;;;;;;;16.60;8.93;;;;;;;10.07;83.26;94523.03;4994477;28;20236;-75
2023/04/30 02:56:30;;;;;;;17.07;9.07;;;;;;;10.16;83.36;94536.72;4994328;28;20609;-75
2023/04/30 02:58:55;;;;;;;20.40;10.43;;;;;;;10.23;83.03;94539.31;4994372;28;20185;-75
2023/04/30 03:01:21;;;;;;;21.27;10.13;;;;;;;10.29;82.75;94538.47;4994357;28;20352;-75
2023/04/30 03:03:46;;;;;;;16.37;9.40;;;;;;;10.30;83.22;94543.50;4994150;28;20307;-75
2023/04/30 03:06:11;;;;;;;17.50;9.20;;;;;;;10.34;82.98;94546.50;4994287;28;20630;-75
2023/04/30 03:08:37;;;;;;;17.23;9.93;;;;;;;10.34;82.83;94547.31;5005618;28;20208;-75
2023/04/30 03:11:02;;;;;;;18.73;10.03;;;;;;;10.36;82.51;94547.91;5009035;28;20181;-75
2023/04/30 03:13:28;;;;;;;19.23;8.90;;;;;;;10.37;82.56;94548.72;5009995;28;20188;-75
2023/04/30 03:16:01;;;;;;;16.30;8.87;;;;;;;10.35;82.31;94545.50;5013736;28;20211;-75
2023/04/30 03:18:27;;;;;;;17.70;9.73;;;;;;;10.33;82.62;94550.97;5013879;28;20187;-75
2023/04/30 03:20:53;;;;;;;22.33;10.07;;;;;;;10.37;82.78;94553.97;5013442;28;20223;-75
2023/04/30 03:23:18;;;;;;;16.20;9.57;;;;;;;10.37;83.45;94554.78;5013579;28;20211;-75
2023/04/30 03:25:43;;;;;;;21.07;10.47;;;;;;;10.39;83.21;94554.53;4994547;28;20189;-75
2023/04/30 03:28:09;;;;;;;18.17;10.57;;;;;;;10.40;83.27;94553.53;5006563;28;20200;-75
2023/04/30 03:30:34;;;;;;;18.73;10.63;;;;;;;10.31;83.87;94549.56;5013578;28;20215;-75
2023/04/30 03:33:00;;;;;;;22.87;11.60;;;;;;;10.31;84.13;94555.63;4996238;28;20616;-75
2023/04/30 03:35:25;;;;;;;19.67;11.27;;;;;;;10.34;84.47;94551.78;4993453;28;20177;-75
2023/04/30 03:37:51;;;;;;;22.23;12.47;;;;;;;10.40;84.25;94561.41;4993719;28;20173;-75
2023/04/30 03:40:16;;;;;;;20.70;12.43;;;;;;;10.33;84.11;94545.69;4993496;28;20232;-75
2023/04/30 03:42:41;;;;;;;18.80;11.83;;;;;;;10.42;84.39;94562.81;5010778;28;20634;-75
2023/04/30 03:45:07;;;;;;;22.23;12.00;;;;;;;10.42;84.52;94567.28;5012996;28;20634;-75
2023/04/30 03:47:32;;;;;;;23.97;13.30;;;;;;;10.49;84.75;94571.44;5012834;28;20180;-75
2023/04/30 03:49:58;;;;;;;22.97;12.10;;;;;;;10.49;84.93;94570.66;5012908;28;20650;-75
2023/04/30 03:52:23;;;;;;;21.47;12.27;;;;;;;10.56;84.84;94572.19;5004501;28;20284;-75
2023/04/30 03:54:49;;;;;;;20.50;12.30;;;;;;;10.60;85.01;94572.56;4993212;28;20555;-75
2023/04/30 03:57:14;;;;;;;21.97;11.57;;;;;;;10.65;84.60;94580.59;4993179;28;20204;-75
2023/04/30 03:59:40;;;;;;;20.93;11.63;;;;;;;10.66;84.87;94587.47;4993470;28;20610;-75
2023/04/30 04:02:06;;;;;;;25.60;10.80;;;;;;;10.75;84.25;94582.75;4993303;28;20184;-75
2023/04/30 04:04:32;;;;;;;21.70;11.93;;;;;;;10.78;84.15;94580.50;4993402;28;20181;-75
2023/04/30 04:06:58;;;;;;;18.40;9.20;;;;;;;10.80;83.35;94578.44;4975933;28;20189;-75
2023/04/30 04:09:23;;;;;;;14.87;8.40;;;;;;;10.78;82.06;94583.13;4992972;28;20280;-75
2023/04/30 04:11:49;;;;;;;22.53;10.33;;;;;;;10.87;81.39;94581.81;4993041;28;20192;-75
2023/04/30 04:14:15;;;;;;;17.87;8.70;;;;;;;10.78;81.41;94569.97;4992848;28;20292;-75
2023/04/30 04:16:41;;;;;;;18.27;8.27;;;;;;;10.92;80.84;94584.56;4992942;28;20171;-75
2023/04/30 04:19:06;;;;;;;15.63;7.63;;;;;;;10.96;80.62;94584.97;5008706;28;20649;-75
2023/04/30 04:21:32;;;;;;;18.33;8.20;;;;;;;11.01;80.72;94587.72;5012642;28;20180;-76
2023/04/30 04:23:57;;;;;;;15.10;7.20;;;;;;;11.03;79.71;94585.69;5004032;28;20177;-76
2023/04/30 04:26:24;;;;;;;15.43;7.13;;;;;;;11.16;79.22;94598.69;4998607;28;20174;-76
2023/04/30 04:28:50;;;;;;;12.03;6.87;;;;;;;11.17;79.64;94588.97;4975359;28;20590;-76
2023/04/30 04:31:16;;;;;;;7.33;5.57;;;;;;;11.24;78.85;94589.72;4992894;28;20182;-76
2023/04/30 04:33:43;;;;;;;10.87;6.07;;;;;;;11.27;78.92;94583.97;5004322;28;20227;-76
2023/04/30 04:36:08;;;;;;;11.30;5.97;;;;;;;11.29;78.79;94574.84;5006707;28;20240;-76
2023/04/30 04:38:34;;;;;;;12.13;6.73;;;;;;;11.54;77.84;94598.44;4993163;28;20558;-76
2023/04/30 04:40:59;;;;;;;8.27;5.17;;;;;;;11.58;77.17;94604.88;5011956;28;20263;-76
2023/04/30 04:43:25;;;;;;;9.03;5.00;;;;;;;11.63;76.13;94612.91;5000301;28;20184;-76
2023/04/30 04:45:51;;;;;;;9.13;5.13;;;;;;;11.63;75.97;94607.66;4998743;28;20176;-76
2023/04/30 04:48:16;;;;;;;8.90;5.40;;;;;;;11.63;75.47;94610.28;5012288;28;20207;-76
2023/04/30 04:50:42;;;;;;;6.10;4.97;;;;;;;11.62;76.15;94610.50;5012494;28;20570;-76
2023/04/30 04:53:07;;;;;;;9.37;5.73;;;;;;;11.62;76.28;94611.31;5003550;28;20176;-76
2023/04/30 04:55:32;;;;;;;8.93;5.87;;;;;;;11.63;75.88;94612.09;5006143;28;20169;-76
2023/04/30 04:57:58;;;;;;;10.23;5.57;;;;;;;11.67;77.03;94618.56;4991517;28;20208;-76
2023/04/30 05:00:24;;;;;;;13.43;5.90;;;;;;;11.68;77.53;94615.69;4992043;28;20184;-76
2023/04/30 05:02:50;;;;;;;9.07;6.33;;;;;;;11.73;76.80;94623.75;4992282;28;20173;-76
2023/04/30 05:05:15;;;;;;;10.73;6.70;;;;;;;11.74;75.97;94616.63;4992399;28;20180;-76
2023/04/30 05:07:41;;;;;;;10.23;6.57;;;;;;;11.79;76.30;94624.69;4992292;28;20591;-75
2023/04/30 05:10:07;;;;;;;9.07;5.57;;;;;;;11.81;74.17;94622.66;4983681;28;20181;-76
2023/04/30 05:12:33;;;;;;;8.60;5.10;;;;;;;11.80;73.88;94620.22;4996895;28;20227;-76
2023/04/30 05:14:58;;;;;;;11.00;5.17;;;;;;;11.80;74.49;94622.88;5011858;28;20624;-76
2023/04/30 05:17:24;;;;;;;10.33;5.90;;;;;;;11.68;74.63;94599.06;5011484;28;20189;-75
2023/04/30 05:19:50;;;;;;;32.43;19.47;;;;;;;11.80;74.81;94612.31;5004284;28;20177;-75
2023/04/30 05:22:16;;;;;;;32.77;20.97;;;;;;;11.75;75.56;94597.19;4992088;28;20573;-76
2023/04/30 05:24:41;;;;;;;16.87;10.50;;;;;;;11.90;75.47;94610.75;4989889;28;20181;-75
2023/04/30 05:27:07;;;;;;;22.70;17.30;;;;;;;12.04;75.31;94621.91;4992237;28;20224;-76
2023/04/30 05:29:33;;;;;;;29.73;22.90;;;;;;;12.05;75.15;94615.59;4998439;28;20236;-76
2023/04/30 05:31:58;;;;;;;19.13;13.13;;;;;;;12.01;74.48;94622.38;5000428;28;20247;-76
2023/04/30 05:34:23;;;;;;;20.07;13.53;;;;;;;12.11;75.32;94621.84;5000899;28;20178;-76
2023/04/30 05:36:49;;;;;;;20.67;12.77;;;;;;;12.19;74.86;94626.78;5002893;28;20666;-76
2023/04/30 05:39:14;;;;;;;14.83;8.80;;;;;;;12.29;75.12;94627.81;5006993;28;21529;-76
2023/04/30 05:41:40;;;;;;;19.00;11.00;;;;;;;12.40;75.04;94621.75;5011469;28;20179;-76
2023/04/30 05:44:05;;;;;;;22.60;9.30;;;;;;;12.50;74.01;94623.03;5003905;28;20650;-77
2023/04/30 05:46:31;;;;;;;15.53;6.83;;;;;;;12.54;73.71;94627.63;5004823;28;20181;-76
2023/04/30 05:48:57;;;;;;;13.10;6.33;;;;;;;12.59;73.18;94619.03;5004795;28;20247;-76
2023/04/30 05:51:22;;;;;;;9.80;5.77;;;;;;;12.67;73.65;94616.84;5005640;28;20176;-77
2023/04/30 05:53:48;;;;;;;8.83;5.93;;;;;;;12.65;73.34;94602.25;5006826;28;20179;-77
2023/04/30 05:56:13;;;;;;;9.50;6.10;;;;;;;12.84;71.46;94632.81;4992488;28;20181;-75
2023/04/30 05:58:39;;;;;;;11.73;6.43;;;;;;;12.88;71.72;94627.88;4991530;28;20176;-76
2023/04/30 06:01:05;;;;;;;13.70;6.80;;;;;;;12.79;71.07;94604.47;4992088;28;20173;-76
2023/04/30 06:03:32;;;;;;;9.30;6.10;;;;;;;13.01;70.19;94639.00;5006022;28;20214;-76
2023/04/30 06:05:58;;;;;;;10.70;6.03;;;;;;;13.10;70.52;94642.91;5002680;28;20184;-74
2023/04/30 06:08:23;;;;;;;11.17;7.07;;;;;;;13.15;70.28;94639.59;4995179;28;20193;-76
2023/04/30 06:10:49;;;;;;;11.30;7.27;;;;;;;13.12;70.77;94626.84;5005993;28;20177;-76
2023/04/30 06:13:15;;;;;;;11.50;6.50;;;;;;;13.21;71.51;94625.47;4998312;28;20180;-78
2023/04/30 06:15:40;;;;;;;12.40;7.10;;;;;;;13.38;71.69;94630.84;5000077;28;20181;-77
2023/04/30 06:18:06;;;;;;;11.50;7.20;;;;;;;13.47;71.26;94619.66;4995397;28;20176;-76
2023/04/30 06:20:32;;;;;;;13.40;7.23;;;;;;;13.80;70.75;94649.94;5011750;28;20168;-78
2023/04/30 06:22:58;;;;;;;13.27;7.17;;;;;;;13.85;70.07;94626.19;5002724;28;20176;-75
2023/04/30 06:25:25;;;;;;;15.13;8.13;;;;;;;14.13;67.98;94652.66;4991695;28;20180;-75
2023/04/30 06:27:52;;;;;;;13.30;8.70;;;;;;;14.23;68.03;94652.03;4999842;28;20555;-76
2023/04/30 06:30:18;;;;;;;13.10;8.60;;;;;;;14.31;66.96;94656.94;4997259;28;20208;-75
2023/04/30 06:32:44;;;;;;;13.83;9.10;;;;;;;14.38;67.00;94660.25;5010859;28;20188;-76
2023/04/30 06:35:09;;;;;;;13.82;8.65;;;;;;;14.46;66.63;94662.53;5010885;28;20204;-75
2023/04/30 06:37:36;;;;;;;10.88;7.32;;;;;;;14.59;66.69;94645.53;5010277;28;20591;-75
2023/04/30 06:40:04;;;;;;;10.73;7.00;;;;;;;15.11;65.19;94656.66;4993235;28;20186;-75
2023/04/30 06:42:34;;;;;;;11.88;6.20;;;;;;;15.91;63.42;94653.50;4999825;28;20200;-75
2023/04/30 06:45:03;;;;;;;8.82;5.40;;;;;;;16.37;58.73;94657.41;5010002;28;20251;-75
2023/04/30 06:47:35;;;;;;;10.02;6.32;;;;;;;16.55;56.41;94642.94;5009532;28;20705;-75
2023/04/30 06:50:01;;;;;;;7.88;5.45;;;;;;;17.10;58.56;94661.22;5009345;28;20183;-75
2023/04/30 06:52:27;;;;;;;15.57;5.95;;;;;;;17.39;53.59;94671.50;5009249;28;20177;-75
2023/04/30 06:54:52;;;;;;;11.50;6.38;;;;;;;17.40;53.82;94668.59;5009185;28;20183;-76
2023/04/30 06:57:17;;;;;;;8.48;5.53;;;;;;;17.41;55.49;94664.88;4997047;28;20271;-75
2023/04/30 06:59:43;;;;;;;10.35;6.85;;;;;;;17.36;54.85;94659.53;5000533;28;20177;-76
2023/04/30 07:02:09;;;;;;;12.30;6.45;;;;;;;17.03;54.22;94665.97;5013124;28;20184;-76
2023/04/30 07:04:34;;;;;;;9.45;6.05;;;;;;;16.94;55.88;94660.31;5013748;28;20195;-75
2023/04/30 07:07:01;;;;;;;9.15;6.22;;;;;;;16.83;54.98;94658.63;5013608;28;20666;-76
2023/04/30 07:09:27;;;;;;;14.50;6.43;;;;;;;16.74;56.53;94638.09;5007280;28;20219;-76
2023/04/30 07:11:53;;;;;;;16.48;7.65;;;;;;;16.69;56.47;94640.72;4993999;28;20200;-76
2023/04/30 07:14:18;;;;;;;13.00;7.95;;;;;;;16.73;58.13;94644.47;5003492;28;20533;-76
2023/04/30 07:16:44;;;;;;;14.30;7.53;;;;;;;16.81;59.22;94658.09;5006521;28;20185;-76
2023/04/30 07:19:09;;;;;;;16.27;8.38;;;;;;;16.78;58.66;94657.78;4993705;28;20184;-76
2023/04/30 07:21:35;;;;;;;19.42;8.50;;;;;;;16.36;57.29;94623.09;4993591;28;20183;-76
2023/04/30 07:24:00;;;;;;;13.65;8.57;;;;;;;16.18;58.31;94654.28;4994526;28;20272;-76
2023/04/30 07:26:26;;;;;;;15.10;8.93;;;;;;;15.97;60.94;94651.69;4993375;28;20706;-76
2023/04/30 07:28:51;;;;;;;17.73;8.65;;;;;;;15.91;59.63;94660.66;4992859;28;20223;-76
2023/04/30 07:31:18;;;;;;;14.00;8.98;;;;;;;15.95;60.56;94657.22;4992773;28;20201;-76
2023/04/30 07:33:43;;;;;;;18.60;7.22;;;;;;;15.91;61.33;94634.09;4995972;28;20189;-75
2023/04/30 07:36:09;;;;;;;14.50;6.93;;;;;;;16.10;59.68;94662.69;4998657;28;20184;-75
2023/04/30 07:38:35;;;;;;;13.10;7.82;;;;;;;16.12;60.41;94665.91;4993319;28;20176;-76
2023/04/30 07:41:01;;;;;;;15.30;7.72;;;;;;;16.19;61.48;94655.09;4993770;28;20188;-76
2023/04/30 07:43:27;;;;;;;13.38;7.05;;;;;;;16.25;61.13;94659.44;4993222;28;20260;-76
2023/04/30 07:45:53;;;;;;;15.85;6.68;;;;;;;16.38;62.05;94659.00;4992995;28;20276;-76
2023/04/30 07:48:19;;;;;;;13.95;6.68;;;;;;;16.46;61.83;94660.41;4993049;28;20197;-76
2023/04/30 07:50:47;;;;;;;13.10;4.60;;;;;;;16.57;60.94;94662.09;4992220;28;20232;-75
2023/04/30 07:53:12;;;;;;;7.15;4.80;;;;;;;16.60;59.08;94662.38;4991627;28;20181;-77
2023/04/30 07:55:38;;;;;;;11.43;5.28;;;;;;;16.76;60.32;94665.22;5000842;28;20180;-74
2023/04/30 07:58:03;;;;;;;8.25;4.63;;;;;;;17.06;60.18;94660.13;4993564;28;20173;-75
2023/04/30 08:00:30;;;;;;;10.50;5.25;;;;;;;17.32;58.86;94655.78;4993016;28;20666;-74
2023/04/30 08:02:55;;;;;;;11.60;5.38;;;;;;;17.61;57.65;94665.00;4993164;28;20181;-75
2023/04/30 08:05:21;;;;;;;8.15;5.63;;;;;;;17.71;57.54;94674.91;4995303;28;20184;-78
2023/04/30 08:07:46;;;;;;;10.55;5.95;;;;;;;17.82;57.39;94673.09;4991764;28;20216;-75
2023/04/30 08:10:12;;;;;;;12.48;6.38;;;;;;;17.87;56.96;94673.13;4992899;28;20546;-75
2023/04/30 08:12:37;;;;;;;11.35;5.80;;;;;;;17.89;56.99;94677.13;4992669;28;20169;-74
2023/04/30 08:15:04;;;;;;;7.68;4.95;;;;;;;17.83;56.05;94672.81;4992313;28;20681;-74
2023/04/30 08:17:33;;;;;;;13.75;5.50;;;;;;;17.82;55.36;94679.22;4992158;28;20232;-76
2023/04/30 08:20:00;;;;;;;12.45;5.70;;;;;;;17.62;55.70;94663.16;4992160;28;20523;-74
2023/04/30 08:22:25;;;;;;;8.02;4.30;;;;;;;17.46;55.53;94670.25;4992341;28;20177;-74
2023/04/30 08:24:51;;;;;;;6.60;4.35;;;;;;;17.46;56.95;94680.88;4992320;28;20747;-73
2023/04/30 08:27:16;;;;;;;6.05;3.70;;;;;;;17.36;56.03;94675.50;4991928;28;20231;-73
2023/04/30 08:29:41;;;;;;;9.18;3.85;;;;;;;17.39;56.91;94677.63;4994269;28;20229;-74
2023/04/30 08:32:08;;;;;;;8.55;4.00;;;;;;;17.40;55.95;94678.44;4991996;28;20173;-73
2023/04/30 08:34:33;;;;;;;13.77;3.75;;;;;;;17.44;56.77;94680.34;4991980;28;20177;-74
2023/04/30 08:37:00;;;;;;;8.15;5.28;;;;;;;17.62;56.85;94682.59;4991185;28;20181;-74
2023/04/30 08:39:25;;;;;;;6.60;3.67;;;;;;;17.45;53.15;94663.31;4992068;28;20177;-74
2023/04/30 08:41:55;;;;;;;9.77;3.47;;;;;;;17.54;55.77;94661.75;4991891;28;20183;-73
2023/04/30 08:44:22;;;;;;;5.20;3.33;;;;;;;17.82;55.66;94673.09;4991510;28;20169;-75
2023/04/30 08:46:55;;;;;;;6.57;3.92;;;;;;;18.02;55.45;94670.50;4991598;28;20184;-74
2023/04/30 08:49:21;;;;;;;8.27;3.90;;;;;;;18.24;53.33;94659.66;4991588;28;20685;-74
2023/04/30 08:51:48;;;;;;;5.65;3.78;;;;;;;18.32;52.80;94645.81;4991559;28;20166;-74
2023/04/30 08:54:13;;;;;;;6.00;3.22;;;;;;;18.47;52.64;94649.31;4991576;28;20185;-74
2023/04/30 08:56:41;;;;;;;6.07;3.20;;;;;;;18.80;50.10;94665.88;4993176;28;20173;-75
2023/04/30 08:59:07;;;;;;;5.07;3.25;;;;;;;18.65;49.39;94658.69;4974656;28;20555;-74
2023/04/30 09:01:33;;;;;;;9.02;3.33;;;;;;;18.65;50.93;94656.03;4994453;28;20173;-76
2023/04/30 09:03:59;;;;;;;5.47;3.42;;;;;;;18.72;49.24;94653.09;4994257;28;20240;-74
2023/04/30 09:06:26;;;;;;;4.90;2.83;;;;;;;19.05;49.61;94644.53;4992045;28;20173;-75
2023/04/30 09:08:53;;;;;;;6.80;2.97;;;;;;;19.31;48.95;94625.81;4992054;28;20281;-75
2023/04/30 09:11:22;;;;;;;4.10;3.30;;;;;;;19.82;48.33;94643.31;4991792;28;20260;-74
2023/04/30 09:13:51;;;;;;;9.07;3.22;;;;;;;20.23;50.05;94637.78;4991881;28;20251;-73
2023/04/30 09:16:17;;;;;;;4.53;3.50;;;;;;;20.69;47.59;94624.91;4991282;28;20621;-72
2023/04/30 09:18:42;;;;;;;4.63;3.08;;;;;;;21.05;46.56;94622.75;4991002;28;20251;-73
2023/04/30 09:21:08;;;;;;;7.00;3.67;;;;;;;21.31;47.82;94620.66;4991192;28;20538;-73
2023/04/30 09:23:33;;;;;;;6.38;3.60;;;;;;;21.72;45.68;94631.72;4991343;28;20173;-73
2023/04/30 09:25:59;;;;;;;5.90;2.92;;;;;;;21.70;42.05;94618.63;4991444;28;20193;-73
2023/04/30 09:28:27;;;;;;;7.43;3.10;;;;;;;21.42;42.35;94616.78;4990935;28;20201;-73
2023/04/30 09:30:55;;;;;;;8.63;3.65;;;;;;;21.14;42.25;94607.66;4991002;28;20188;-72
2023/04/30 09:33:21;;;;;;;6.18;3.20;;;;;;;20.41;43.90;94607.72;4973788;28;20173;-72
2023/04/30 09:35:47;;;;;;;3.45;2.63;;;;;;;20.74;48.96;94606.16;4991235;28;20184;-73
2023/04/30 09:38:26;;;;;;;3.67;3.30;;;;;;;21.33;47.77;94613.94;4991055;28;20227;-73
2023/04/30 09:40:51;;;;;;;3.40;2.80;;;;;;;21.59;45.02;94593.03;4990890;28;20184;-73
2023/04/30 09:43:17;;;;;;;5.32;3.13;;;;;;;21.83;43.12;94596.50;4991160;28;20236;-73
2023/04/30 09:45:47;;;;;;;5.43;3.00;;;;;;;21.95;44.02;94603.31;4991052;28;20191;-73
2023/04/30 09:48:19;;;;;;;3.83;3.05;;;;;;;22.24;44.30;94595.97;4991241;28;20196;-73
2023/04/30 09:50:46;;;;;;;3.40;3.10;;;;;;;22.42;41.18;94591.69;4990064;28;20181;-72
2023/04/30 09:53:13;;;;;;;4.50;3.58;;;;;;;22.64;40.05;94597.25;4990957;28;20260;-73
2023/04/30 09:55:41;;;;;;;4.80;3.33;;;;;;;22.58;41.84;94596.53;4991127;28;20180;-74
2023/04/30 09:58:09;;;;;;;4.95;3.53;;;;;;;22.67;41.98;94591.28;4991261;28;20197;-74
2023/04/30 10:00:35;;;;;;;4.65;3.83;;;;;;;22.48;40.67;94593.22;4991424;28;20662;-75
2023/04/30 10:03:09;;;;;;;5.35;2.58;;;;;;;22.29;40.01;94587.88;4991262;28;20165;-75
2023/04/30 10:05:47;;;;;;;3.28;2.75;;;;;;;21.83;39.53;94585.75;4991253;28;20200;-76
2023/04/30 10:08:34;;;;;;;4.30;3.08;;;;;;;21.58;42.37;94577.25;4991233;28;20192;-76
2023/04/30 10:11:06;;;;;;;2.78;2.50;;;;;;;21.38;42.21;94587.09;4991324;28;20185;-75
2023/04/30 10:13:37;;;;;;;3.78;2.85;;;;;;;21.25;43.33;94578.94;4991099;28;20169;-74
2023/04/30 10:16:27;;;;;;;9.02;3.20;;;;;;;21.12;45.87;94580.38;4991190;28;20736;-75
2023/04/30 10:18:53;;;;;;;6.07;2.95;;;;;;;20.88;44.98;94585.69;4973028;28;20177;-76
2023/04/30 10:21:21;;;;;;;3.97;2.90;;;;;;;20.75;45.82;94593.59;4990032;28;20188;-73
2023/04/30 10:23:47;;;;;;;4.38;2.70;;;;;;;20.50;45.30;94626.66;4989859;28;20185;-73
2023/04/30 10:26:15;;;;;;;5.82;3.58;;;;;;;20.04;48.72;94623.44;4990884;28;20189;-75
2023/04/30 10:28:41;;;;;;;8.30;3.72;;;;;;;19.59;49.80;94643.94;4972762;28;20588;-74
2023/04/30 10:31:11;;;;;;;7.47;3.72;;;;;;;19.01;54.08;94635.47;4992664;28;20248;-75
2023/04/30 10:33:55;;;;;;;4.90;3.35;;;;;;;18.30;58.19;94631.94;4994074;28;20169;-74
2023/04/30 10:36:43;;;;;;;4.82;3.05;;;;;;;17.79;61.97;94609.72;4993998;28;20161;-77
2023/04/30 10:39:10;;;;;;;3.70;3.17;;;;;;;17.63;63.45;94628.28;4989057;28;20290;-75
2023/04/30 10:41:36;;;;;;;5.82;4.57;;;;;;;17.28;65.13;94615.59;4984433;28;20309;-75
2023/04/30 10:44:04;;;;;;;4.60;4.07;;;;;;;17.24;69.27;94587.88;4990816;28;20269;-76
2023/04/30 10:46:29;;;;;;;5.40;4.30;;;;;;;17.70;68.88;94610.22;4993568;28;20200;-74
2023/04/30 10:48:55;;;;;;;5.20;3.80;;;;;;;17.96;65.70;94611.09;4993695;28;20674;-74
2023/04/30 10:51:21;;;;;;;6.05;3.10;;;;;;;17.96;60.90;94581.78;4993758;28;20188;-72
2023/04/30 10:53:50;;;;;;;3.90;3.38;;;;;;;18.32;60.46;94598.66;4993152;28;20341;-72
2023/04/30 10:56:30;;;;;;;3.65;2.85;;;;;;;18.44;55.90;94601.03;4993928;28;20239;-72
2023/04/30 10:59:02;;;;;;;3.53;3.13;;;;;;;18.61;56.81;94598.13;4998774;28;20238;-73
2023/04/30 11:01:28;;;;;;;6.32;3.45;;;;;;;18.64;58.46;94573.63;4998747;28;20622;-73
2023/04/30 11:04:08;;;;;;;7.13;3.95;;;;;;;19.04;56.09;94596.75;4993833;28;20763;-73
2023/04/30 11:06:54;;;;;;;9.75;5.05;;;;;;;19.26;52.89;94591.94;4976533;28;20185;-74
2023/04/30 11:09:44;;;;;;;5.72;2.65;;;;;;;19.61;53.21;94588.38;4993237;28;20571;-73
2023/04/30 11:12:09;;;;;;;4.68;3.55;;;;;;;19.96;51.58;94584.75;4993888;28;20208;-73
2023/04/30 11:14:40;;;;;;;6.85;2.97;;;;;;;19.98;47.31;94571.09;4993626;28;20616;-73
2023/04/30 11:17:06;;;;;;;3.70;2.70;;;;;;;20.05;47.35;94587.63;4994053;28;20185;-73
2023/04/30 11:19:33;;;;;;;3.83;2.97;;;;;;;20.08;50.68;94592.41;4994250;28;20665;-74
2023/04/30 11:22:04;;;;;;;3.75;2.72;;;;;;;20.09;50.51;94594.00;4993399;28;20165;-75
2023/04/30 11:24:59;;;;;;;14.45;4.35;;;;;;;20.07;49.06;94580.09;4975748;28;20223;-74
2023/04/30 11:27:27;;;;;;;4.55;4.03;;;;;;;20.08;48.23;94584.38;4979352;28;20628;-74
2023/04/30 11:29:53;;;;;;;2.83;2.53;;;;;;;19.92;47.76;94555.09;4992955;28;20213;-75